createdAt,value
2019-03-12T00:00:08.864Z,3.60
2019-03-12T00:04:20.031Z,3.60
2019-03-12T00:08:31.266Z,3.60
2019-03-12T00:12:42.638Z,3.60
2019-03-12T00:16:53.757Z,3.60
2019-03-12T00:21:06.456Z,3.60
2019-03-12T00:25:18.343Z,3.60
2019-03-12T00:29:32.144Z,3.60
2019-03-12T00:33:43.322Z,3.60
2019-03-12T00:37:54.448Z,3.70
2019-03-12T00:42:07.526Z,3.70
2019-03-12T00:46:18.871Z,3.70
2019-03-12T00:50:31.026Z,3.70
2019-03-12T00:54:42.282Z,3.70
2019-03-12T00:58:54.756Z,3.70
2019-03-12T01:03:06.140Z,3.60
2019-03-12T01:07:18.484Z,3.60
2019-03-12T01:11:29.747Z,3.60
2019-03-12T01:15:41.055Z,3.50
2019-03-12T01:19:52.271Z,3.60
2019-03-12T01:24:04.295Z,3.50
2019-03-12T01:28:16.940Z,3.50
2019-03-12T01:32:28.719Z,3.50
2019-03-12T01:36:41.788Z,3.50
2019-03-12T01:40:52.942Z,3.40
2019-03-12T01:45:04.183Z,3.40
2019-03-12T01:49:15.366Z,3.40
2019-03-12T01:53:26.618Z,3.50
2019-03-12T01:57:37.844Z,3.50
2019-03-12T02:01:49.105Z,3.50
2019-03-12T02:06:01.987Z,3.50
2019-03-12T02:10:14.652Z,3.40
2019-03-12T02:14:27.986Z,3.40
2019-03-12T02:18:39.346Z,3.40
2019-03-12T02:22:50.562Z,3.40
2019-03-12T02:27:01.937Z,3.50
2019-03-12T02:31:13.394Z,3.50
2019-03-12T02:35:24.506Z,3.50
2019-03-12T02:39:37.225Z,3.50
2019-03-12T02:43:48.641Z,3.50
2019-03-12T02:48:00.142Z,3.60
2019-03-12T02:52:11.549Z,3.60
2019-03-12T02:56:22.694Z,3.70
2019-03-12T03:00:34.946Z,3.70
2019-03-12T03:04:46.720Z,3.70
2019-03-12T03:08:56.909Z,3.70
2019-03-12T03:13:08.918Z,3.70
2019-03-12T03:17:20.157Z,3.80
2019-03-12T03:21:30.786Z,3.80
2019-03-12T03:25:42.012Z,3.80
2019-03-12T03:29:53.545Z,3.80
2019-03-12T03:34:04.739Z,3.80
2019-03-12T03:38:16.011Z,3.90
2019-03-12T03:42:28.894Z,3.80
2019-03-12T03:46:40.153Z,3.90
2019-03-12T03:50:51.400Z,3.80
2019-03-12T03:55:02.776Z,3.80
2019-03-12T03:59:14.068Z,3.70
2019-03-12T04:03:25.334Z,3.70
2019-03-12T04:07:36.591Z,3.70
2019-03-12T04:11:47.818Z,3.70
2019-03-12T04:16:00.214Z,3.70
2019-03-12T04:20:13.356Z,3.70
2019-03-12T04:24:24.511Z,3.60
2019-03-12T04:28:35.969Z,3.50
2019-03-12T04:32:49.481Z,3.40
2019-03-12T04:37:02.472Z,3.30
2019-03-12T04:41:13.596Z,3.20
2019-03-12T04:45:25.705Z,3.20
2019-03-12T04:49:36.876Z,3.20
2019-03-12T04:53:48.613Z,3.30
2019-03-12T04:57:59.955Z,3.30
2019-03-12T05:02:12.506Z,3.30
2019-03-12T05:06:25.313Z,3.30
2019-03-12T05:10:36.608Z,3.30
2019-03-12T05:14:49.490Z,3.30
2019-03-12T05:19:00.918Z,3.30
2019-03-12T05:23:12.330Z,3.40
2019-03-12T05:27:25.111Z,3.40
2019-03-12T05:31:38.177Z,3.40
2019-03-12T05:35:49.405Z,3.30
2019-03-12T05:40:00.734Z,3.30
2019-03-12T05:44:12.140Z,3.40
2019-03-12T05:48:24.031Z,3.30
2019-03-12T05:52:35.702Z,3.30
2019-03-12T05:56:46.914Z,3.40
2019-03-12T06:00:59.310Z,3.40
2019-03-12T06:05:10.787Z,3.40
2019-03-12T06:09:30.093Z,3.40
2019-03-12T06:13:34.656Z,3.50
2019-03-12T06:17:45.821Z,3.50
2019-03-12T06:21:58.780Z,3.60
2019-03-12T06:26:10.485Z,3.60
2019-03-12T06:30:25.980Z,3.60
2019-03-12T06:34:39.040Z,3.70
2019-03-12T06:39:08.569Z,3.80
2019-03-12T06:43:37.757Z,3.90
2019-03-12T06:48:07.594Z,4.00
2019-03-12T06:52:23.099Z,4.00
2019-03-12T06:56:46.359Z,3.90
2019-03-12T07:01:02.160Z,3.90
2019-03-12T07:05:14.961Z,3.90
2019-03-12T07:09:28.279Z,4.00
2019-03-12T07:13:41.101Z,4.10
2019-03-12T07:17:54.959Z,4.20
2019-03-12T07:22:12.040Z,4.20
2019-03-12T07:26:42.775Z,4.30
2019-03-12T07:31:00.941Z,4.30
2019-03-12T07:35:32.038Z,4.40
2019-03-12T07:39:47.737Z,4.50
2019-03-12T07:44:17.215Z,4.50
2019-03-12T07:48:46.634Z,4.70
2019-03-12T07:53:15.839Z,4.80
2019-03-12T07:57:29.392Z,4.90
2019-03-12T08:01:51.223Z,5.00
2019-03-12T08:06:06.539Z,5.10
2019-03-12T08:10:19.377Z,5.10
2019-03-12T08:14:49.209Z,5.20
2019-03-12T08:19:05.624Z,5.40
2019-03-12T08:23:34.703Z,5.50
2019-03-12T08:28:02.682Z,5.60
2019-03-12T08:32:16.955Z,5.80
2019-03-12T08:36:34.293Z,5.90
2019-03-12T08:41:03.675Z,6.20
2019-03-12T08:45:32.782Z,6.70
2019-03-12T08:50:02.593Z,7.00
2019-03-12T08:54:27.398Z,7.50
2019-03-12T08:58:49.181Z,7.40
2019-03-12T09:03:06.219Z,7.70
2019-03-12T09:07:25.668Z,8.40
2019-03-12T09:11:41.289Z,8.20
2019-03-12T09:16:09.527Z,7.90
2019-03-12T09:20:39.415Z,7.80
2019-03-12T09:24:55.011Z,7.70
2019-03-12T09:29:16.804Z,7.70
2019-03-12T09:33:45.795Z,7.60
2019-03-12T09:37:58.657Z,7.90
2019-03-12T09:42:27.488Z,7.90
2019-03-12T09:46:42.555Z,7.90
2019-03-12T09:51:01.779Z,8.20
2019-03-12T09:55:20.584Z,8.40
2019-03-12T09:59:51.890Z,8.50
2019-03-12T10:04:07.063Z,8.80
2019-03-12T10:08:36.954Z,9.70
2019-03-12T10:12:52.803Z,10.30
2019-03-12T10:17:22.734Z,9.90
2019-03-12T10:21:35.588Z,9.40
2019-03-12T10:26:04.793Z,9.60
2019-03-12T10:30:37.536Z,9.90
2019-03-12T10:35:01.251Z,10.10
2019-03-12T10:40:07.825Z,10.40
2019-03-12T10:44:20.929Z,10.20
2019-03-12T10:48:32.094Z,9.80
2019-03-12T10:52:43.577Z,10.10
2019-03-12T10:56:54.920Z,10.70
2019-03-12T11:01:06.150Z,11.40
2019-03-12T11:05:18.819Z,11.90
2019-03-12T11:09:30.720Z,12.10
2019-03-12T11:13:42.128Z,12.60
2019-03-12T11:17:54.851Z,11.60
2019-03-12T11:22:05.001Z,12.30
2019-03-12T11:26:17.072Z,13.60
2019-03-12T11:30:28.434Z,13.80
2019-03-12T11:34:40.965Z,12.10
2019-03-12T11:38:52.249Z,13.70
2019-03-12T11:43:03.695Z,14.70
2019-03-12T11:47:15.042Z,14.90
2019-03-12T11:51:27.922Z,15.10
2019-03-12T11:55:40.742Z,14.20
2019-03-12T11:59:52.075Z,15.70
2019-03-12T12:04:03.449Z,15.70
2019-03-12T12:08:14.723Z,14.50
2019-03-12T12:12:25.970Z,14.90
2019-03-12T12:16:37.198Z,15.30
2019-03-12T12:20:48.579Z,15.90
2019-03-12T12:24:59.753Z,14.90
2019-03-12T12:29:11.040Z,14.20
2019-03-12T12:33:23.709Z,15.00
2019-03-12T12:37:34.849Z,13.70
2019-03-12T12:41:46.142Z,12.00
2019-03-12T12:45:59.026Z,11.10
2019-03-12T12:50:10.429Z,10.70
2019-03-12T12:54:21.607Z,10.80
2019-03-12T12:58:33.840Z,10.80
2019-03-12T13:02:45.202Z,10.80
2019-03-12T13:06:56.882Z,10.70
2019-03-12T13:11:09.569Z,10.50
2019-03-12T13:15:21.104Z,10.50
2019-03-12T13:19:33.952Z,10.60
2019-03-12T13:23:44.289Z,10.50
2019-03-12T13:27:55.584Z,10.60
2019-03-12T13:32:13.464Z,10.60
2019-03-12T13:36:19.892Z,10.70
2019-03-12T13:40:32.937Z,10.80
2019-03-12T13:44:44.753Z,10.60
2019-03-12T13:48:55.908Z,10.50
2019-03-12T13:53:07.138Z,10.50
2019-03-12T13:57:20.736Z,10.40
2019-03-12T14:01:32.069Z,10.20
2019-03-12T14:05:43.328Z,10.30
2019-03-12T14:09:53.966Z,10.10
2019-03-12T14:14:05.301Z,10.10
2019-03-12T14:18:16.622Z,10.10
2019-03-12T14:22:28.792Z,10.20
2019-03-12T14:26:40.113Z,10.20
2019-03-12T14:30:52.984Z,10.20
2019-03-12T14:35:05.587Z,10.30
2019-03-12T14:39:17.830Z,10.40
2019-03-12T14:43:29.061Z,10.50
2019-03-12T14:47:40.352Z,10.60
2019-03-12T14:52:03.608Z,10.40
2019-03-12T14:56:15.511Z,10.30
2019-03-12T15:00:27.747Z,10.20
2019-03-12T15:04:40.059Z,10.40
2019-03-12T15:08:51.179Z,10.60
2019-03-12T15:13:02.338Z,10.60
2019-03-12T15:17:13.572Z,10.50
2019-03-12T15:21:27.510Z,10.30
2019-03-12T15:25:38.633Z,10.10
2019-03-12T15:29:49.929Z,9.90
2019-03-12T15:34:01.312Z,9.80
2019-03-12T15:38:13.839Z,9.60
2019-03-12T15:42:24.992Z,9.50
2019-03-12T15:46:36.382Z,9.50
2019-03-12T15:50:47.537Z,9.50
2019-03-12T15:54:58.806Z,9.50
2019-03-12T15:59:09.965Z,9.40
2019-03-12T16:03:23.901Z,9.40
2019-03-12T16:07:35.134Z,9.30
2019-03-12T16:11:46.566Z,9.20
2019-03-12T16:15:57.942Z,9.20
2019-03-12T16:20:25.801Z,9.20
2019-03-12T16:24:37.002Z,9.10
2019-03-12T16:28:49.135Z,9.10
2019-03-12T16:33:03.919Z,9.00
2019-03-12T16:37:18.218Z,9.00
2019-03-12T16:41:29.379Z,8.90
2019-03-12T16:45:40.614Z,8.90
2019-03-12T16:49:51.859Z,8.80
2019-03-12T16:54:05.490Z,8.70
2019-03-12T16:58:18.474Z,8.70
2019-03-12T17:02:29.822Z,8.60
2019-03-12T17:06:41.005Z,8.50
2019-03-12T17:11:00.841Z,8.50
2019-03-12T17:15:08.264Z,8.40
2019-03-12T17:19:19.523Z,8.30
2019-03-12T17:23:30.791Z,8.30
2019-03-12T17:27:40.977Z,8.30
2019-03-12T17:31:53.359Z,8.30
2019-03-12T17:36:06.811Z,8.30
2019-03-12T17:40:21.408Z,8.30
2019-03-12T17:44:35.440Z,8.30
2019-03-12T17:48:46.647Z,8.30
2019-03-12T17:52:57.903Z,8.30
2019-03-12T17:57:09.155Z,8.30
2019-03-12T18:01:20.620Z,8.30
2019-03-12T18:05:31.779Z,8.30
2019-03-12T18:09:43.058Z,8.30
2019-03-12T18:13:53.691Z,8.20
2019-03-12T18:18:05.078Z,8.20
2019-03-12T18:22:16.235Z,8.10
2019-03-12T18:26:27.910Z,8.10
2019-03-12T18:30:51.143Z,8.10
2019-03-12T18:34:54.585Z,8.10
2019-03-12T18:39:07.419Z,8.10
2019-03-12T18:43:18.695Z,8.10
2019-03-12T18:47:30.903Z,8.10
2019-03-12T18:51:42.330Z,8.00
2019-03-12T18:55:57.091Z,8.00
2019-03-12T19:00:12.720Z,7.90
2019-03-12T19:04:24.125Z,8.00
2019-03-12T19:08:36.778Z,8.00
2019-03-12T19:12:50.342Z,8.00
2019-03-12T19:17:02.675Z,8.00
2019-03-12T19:21:15.350Z,7.90
2019-03-12T19:25:43.835Z,8.00
2019-03-12T19:29:55.252Z,8.10
2019-03-12T19:34:07.526Z,8.00
2019-03-12T19:38:18.853Z,8.00
2019-03-12T19:42:30.020Z,8.00
2019-03-12T19:46:42.680Z,8.00
2019-03-12T19:50:53.902Z,8.00
2019-03-12T19:55:06.067Z,8.00
2019-03-12T19:59:16.101Z,8.10
2019-03-12T20:03:27.286Z,8.10
2019-03-12T20:07:38.699Z,8.20
2019-03-12T20:12:05.106Z,8.20
2019-03-12T20:16:52.997Z,8.20
2019-03-12T20:21:07.359Z,8.20
2019-03-12T20:25:49.120Z,8.20
2019-03-12T20:30:35.708Z,8.20
2019-03-12T20:35:05.352Z,8.30
2019-03-12T20:39:53.925Z,8.30
2019-03-12T20:44:20.051Z,8.30
2019-03-12T20:48:50.925Z,8.20
2019-03-12T20:53:20.536Z,8.20
2019-03-12T20:57:43.280Z,8.20
2019-03-12T21:02:30.996Z,8.20
2019-03-12T21:07:18.774Z,8.20
2019-03-12T21:12:06.906Z,8.20
2019-03-12T21:16:23.159Z,8.30
2019-03-12T21:20:54.394Z,8.30
2019-03-12T21:25:17.527Z,8.30
2019-03-12T21:29:43.061Z,8.30
2019-03-12T21:33:54.223Z,8.30
2019-03-12T21:38:05.577Z,8.40
2019-03-12T21:42:16.795Z,8.40
2019-03-12T21:46:28.048Z,8.40
2019-03-12T21:50:39.351Z,8.40
2019-03-12T21:54:50.817Z,8.50
2019-03-12T21:59:02.259Z,8.60
2019-03-12T22:03:16.275Z,8.50
2019-03-12T22:07:27.163Z,8.50
2019-03-12T22:11:39.791Z,8.50
2019-03-12T22:15:55.774Z,8.40
2019-03-12T22:20:11.964Z,8.50
2019-03-12T22:24:23.215Z,8.50
2019-03-12T22:28:34.655Z,8.50
2019-03-12T22:32:45.970Z,8.40
2019-03-12T22:36:57.159Z,8.50
2019-03-12T22:41:10.252Z,8.50
2019-03-12T22:45:21.386Z,8.50
2019-03-12T22:49:34.378Z,8.50
2019-03-12T22:53:45.724Z,8.50
2019-03-12T22:57:57.068Z,8.40
2019-03-12T23:02:07.402Z,8.40
2019-03-12T23:06:19.803Z,8.40
2019-03-12T23:10:32.099Z,8.40
2019-03-12T23:14:43.542Z,8.40
2019-03-12T23:18:54.822Z,8.40
2019-03-12T23:23:06.355Z,8.40
2019-03-12T23:27:19.929Z,8.40
2019-03-12T23:31:32.871Z,8.40
2019-03-12T23:35:45.041Z,8.40
2019-03-12T23:39:56.384Z,8.40
2019-03-12T23:44:07.684Z,8.40
2019-03-12T23:48:19.043Z,8.40
2019-03-12T23:52:30.491Z,8.40
2019-03-12T23:56:41.956Z,8.40
